Time;durP1;ratioP1;P1;durP2;ratioP2;P2;SDS_P1;SDS_P2;PMS_P1;PMS_P2;Temp;Humidity;BMP_temperature;BMP_pressure;BME280_temperature;BME280_humidity;BME280_pressure;Samples;Min_cycle;Max_cycle;Signal;HPM_P1;HPM_P2
2021/07/11 00:00:49;;;;;;;23.80;21.33;;;;;;;15.93;100.00;101460.03;5246537;28;20032;-67
2021/07/11 00:03:20;;;;;;;24.70;21.80;;;;;;;15.95;100.00;101466.00;5246148;28;20060;-67
2021/07/11 00:05:52;;;;;;;23.17;20.80;;;;;;;15.93;100.00;101465.31;5243416;28;20027;-68
2021/07/11 00:08:23;;;;;;;22.20;20.10;;;;;;;15.93;100.00;101471.41;5247743;28;20630;-66
2021/07/11 00:10:54;;;;;;;24.83;22.27;;;;;;;15.94;100.00;101466.97;5244089;28;20013;-66
2021/07/11 00:13:26;;;;;;;24.65;21.63;;;;;;;15.93;100.00;101475.88;5246515;28;20027;-67
2021/07/11 00:15:57;;;;;;;23.45;20.90;;;;;;;15.92;100.00;101476.88;5244758;28;20025;-69
2021/07/11 00:18:28;;;;;;;24.88;22.20;;;;;;;15.88;100.00;101459.66;5243601;28;20094;-66
2021/07/11 00:20:59;;;;;;;22.55;20.25;;;;;;;15.95;100.00;101468.66;5247372;28;20070;-66
2021/07/11 00:23:31;;;;;;;25.38;20.60;;;;;;;15.94;100.00;101459.84;5240671;28;20036;-66
2021/07/11 00:26:02;;;;;;;24.35;21.63;;;;;;;15.96;100.00;101467.66;5244460;28;20059;-66
2021/07/11 00:28:33;;;;;;;23.08;20.35;;;;;;;15.92;100.00;101461.84;5244071;28;20033;-68
2021/07/11 00:31:05;;;;;;;24.63;22.13;;;;;;;15.93;100.00;101460.84;5244064;28;20047;-67
2021/07/11 00:33:36;;;;;;;25.33;21.70;;;;;;;15.95;100.00;101456.25;5242896;28;20028;-68
2021/07/11 00:36:08;;;;;;;25.98;22.10;;;;;;;15.94;100.00;101451.94;5243152;28;20051;-68
2021/07/11 00:38:39;;;;;;;27.27;21.80;;;;;;;15.96;100.00;101459.72;5244889;28;20020;-66
2021/07/11 00:41:10;;;;;;;23.60;21.08;;;;;;;15.88;100.00;101444.63;5242743;28;20045;-67
2021/07/11 00:43:42;;;;;;;26.15;23.30;;;;;;;15.93;100.00;101454.75;5243404;28;20025;-67
2021/07/11 00:46:13;;;;;;;25.05;22.55;;;;;;;15.99;100.00;101460.25;5242355;28;20029;-66
2021/07/11 00:48:45;;;;;;;27.02;24.13;;;;;;;16.00;100.00;101455.81;5240914;28;20043;-68
2021/07/11 00:51:16;;;;;;;27.10;24.25;;;;;;;15.95;100.00;101444.88;5245403;28;20459;-66
2021/07/11 00:53:49;;;;;;;27.52;24.67;;;;;;;15.94;100.00;101451.94;5242873;28;20051;-67
2021/07/11 00:56:21;;;;;;;28.27;24.60;;;;;;;15.93;100.00;101452.91;5242840;28;20112;-67
2021/07/11 00:58:52;;;;;;;27.67;24.38;;;;;;;15.95;100.00;101460.72;5243635;28;20043;-67
2021/07/11 01:01:34;;;;;;;26.88;23.48;;;;;;;15.99;100.00;101464.72;5245007;28;20076;-66
2021/07/11 01:04:12;;;;;;;26.90;24.15;;;;;;;15.96;100.00;101465.84;5243653;28;20486;-67
2021/07/11 01:06:48;;;;;;;26.85;24.00;;;;;;;16.02;100.00;101459.97;5241318;28;20025;-67
2021/07/11 01:09:28;;;;;;;29.08;24.67;;;;;;;15.98;100.00;101458.56;5243503;28;20355;-67
2021/07/11 01:12:05;;;;;;;29.60;25.42;;;;;;;15.99;100.00;101464.72;5240343;28;20026;-66
2021/07/11 01:14:38;;;;;;;28.65;24.45;;;;;;;16.00;100.00;101456.63;5242966;28;20034;-66
2021/07/11 01:17:11;;;;;;;27.88;24.85;;;;;;;15.98;100.00;101465.69;5244576;28;20108;-66
2021/07/11 01:19:55;;;;;;;;;;;;;;;16.21;100.00;101456.34;5246693;28;20466;-67
2021/07/11 01:22:34;;;;;;;27.00;24.13;;;;;;;16.03;100.00;101458.16;5239741;28;19925;-66
2021/07/11 01:25:08;;;;;;;29.38;25.83;;;;;;;15.99;100.00;101447.03;5241494;28;20036;-66
2021/07/11 01:27:43;;;;;;;30.92;26.02;;;;;;;15.97;100.00;101459.56;5243585;28;20024;-67
2021/07/11 01:30:14;;;;;;;29.33;25.13;;;;;;;15.97;100.00;101466.66;5245335;28;20023;-66
2021/07/11 01:32:46;;;;;;;31.55;27.83;;;;;;;15.98;100.00;101471.78;5240672;28;20518;-66
2021/07/11 01:35:18;;;;;;;33.28;28.48;;;;;;;15.98;100.00;101463.84;5240839;28;20037;-66
2021/07/11 01:37:51;;;;;;;32.13;26.83;;;;;;;15.94;100.00;101474.88;5244000;28;20037;-66
2021/07/11 01:40:23;;;;;;;30.55;27.05;;;;;;;15.93;100.00;101476.69;5238834;28;20029;-67
2021/07/11 01:42:55;;;;;;;31.10;26.73;;;;;;;15.93;100.00;101486.44;5239892;28;20039;-68
2021/07/11 01:45:28;;;;;;;31.30;28.13;;;;;;;15.95;100.00;101477.41;5239943;28;20478;-68
2021/07/11 01:48:00;;;;;;;;;;;;;;;16.19;100.00;101479.44;5241224;28;20090;-67
2021/07/11 01:50:32;;;;;;;29.90;26.75;;;;;;;15.97;100.00;101467.50;5245509;28;20373;-67
2021/07/11 01:53:03;;;;;;;30.73;27.42;;;;;;;15.98;100.00;101463.84;5244896;28;20067;-65
2021/07/11 01:55:35;;;;;;;33.75;29.60;;;;;;;15.98;100.00;101474.44;5244052;28;20413;-68
2021/07/11 01:58:06;;;;;;;31.90;28.30;;;;;;;15.97;100.00;101472.78;5242391;28;20033;-67
2021/07/11 02:00:37;;;;;;;33.17;29.60;;;;;;;15.95;100.00;101468.66;5237881;28;20156;-66
2021/07/11 02:03:20;;;;;;;33.97;29.50;;;;;;;15.95;100.00;101468.66;5242825;28;20027;-67
2021/07/11 02:05:53;;;;;;;35.42;28.48;;;;;;;15.90;100.00;101476.16;5240535;28;20090;-66
2021/07/11 02:08:25;;;;;;;32.15;28.75;;;;;;;15.90;100.00;101477.00;5242003;28;20052;-66
2021/07/11 02:10:57;;;;;;;30.92;27.63;;;;;;;15.87;100.00;101466.72;5243204;28;20033;-66
2021/07/11 02:13:36;;;;;;;32.13;27.98;;;;;;;15.91;100.00;101469.91;5242505;28;20019;-68
2021/07/11 02:16:14;;;;;;;31.08;27.42;;;;;;;15.86;100.00;101465.06;5243075;28;20427;-65
2021/07/11 02:18:48;;;;;;;34.35;29.65;;;;;;;15.79;100.00;101464.00;5240886;28;20024;-68
2021/07/11 02:21:21;;;;;;;32.10;28.60;;;;;;;15.82;100.00;101456.59;5242508;28;20032;-68
2021/07/11 02:23:53;;;;;;;;;;;;;;;16.05;100.00;101461.47;5247927;28;20017;-68
2021/07/11 02:26:25;;;;;;;31.17;25.88;;;;;;;15.82;100.00;101467.19;5242100;28;20400;-69
2021/07/11 02:28:57;;;;;;;36.25;30.67;;;;;;;15.79;100.00;101464.00;5241682;28;20044;-65
2021/07/11 02:31:29;;;;;;;32.88;29.52;;;;;;;15.75;100.00;101460.81;5243234;28;20021;-66
2021/07/11 02:34:00;;;;;;;41.03;32.47;;;;;;;15.75;100.00;101466.09;5246101;28;20111;-67
2021/07/11 02:36:33;;;;;;;38.58;33.45;;;;;;;15.78;100.00;101473.75;5243251;28;20447;-66
2021/07/11 02:39:10;;;;;;;40.40;32.60;;;;;;;15.79;100.00;101469.28;5243700;28;20021;-68
2021/07/11 02:41:47;;;;;;;39.75;32.80;;;;;;;15.73;100.00;101470.72;5239602;28;20064;-66
2021/07/11 02:44:20;;;;;;;37.83;32.50;;;;;;;15.75;100.00;101479.31;5242198;28;20051;-67
2021/07/11 02:46:56;;;;;;;39.97;33.95;;;;;;;15.74;100.00;101475.03;5238430;28;20037;-68
2021/07/11 02:49:31;;;;;;;38.63;32.88;;;;;;;15.75;100.00;101479.31;5241406;28;20112;-66
2021/07/11 02:52:05;;;;;;;42.83;33.50;;;;;;;15.71;100.00;101474.47;5243434;28;20063;-67
2021/07/11 02:54:44;;;;;;;36.15;31.60;;;;;;;15.76;100.00;101481.00;5239514;28;20045;-66
2021/07/11 02:57:21;;;;;;;38.35;32.85;;;;;;;15.76;100.00;101488.09;5240107;28;20048;-66
2021/07/11 02:59:53;;;;;;;40.80;33.10;;;;;;;15.74;100.00;101493.50;5244126;28;20029;-67
2021/07/11 03:02:27;;;;;;;37.25;32.05;;;;;;;15.78;100.00;101486.13;5244088;28;20025;-67
2021/07/11 03:04:59;;;;;;;39.05;32.03;;;;;;;15.75;100.00;101487.25;5243394;28;20433;-67
2021/07/11 03:07:31;;;;;;;36.03;30.73;;;;;;;15.79;100.00;101483.31;5245441;28;20026;-67
2021/07/11 03:10:03;;;;;;;39.25;32.80;;;;;;;15.75;100.00;101492.53;5243676;28;20033;-67
2021/07/11 03:12:36;;;;;;;38.83;33.08;;;;;;;15.79;100.00;101493.06;5241131;28;20036;-66
2021/07/11 03:15:08;;;;;;;42.22;34.30;;;;;;;15.78;100.00;101497.50;5243889;28;20128;-68
2021/07/11 03:17:41;;;;;;;46.13;34.63;;;;;;;15.76;100.00;101496.03;5247906;28;20040;-67
2021/07/11 03:20:13;;;;;;;44.40;35.03;;;;;;;15.75;100.00;101500.44;5244118;28;20056;-66
2021/07/11 03:22:45;;;;;;;44.13;33.72;;;;;;;15.74;100.00;101492.69;5248872;28;20028;-68
2021/07/11 03:25:17;;;;;;;47.50;36.30;;;;;;;15.69;100.00;101487.03;5244940;28;20478;-68
2021/07/11 03:27:48;;;;;;;45.88;36.88;;;;;;;15.75;100.00;101486.41;5245082;28;20037;-66
2021/07/11 03:30:21;;;;;;;47.08;35.70;;;;;;;15.72;100.00;101489.34;5244547;28;20016;-66
2021/07/11 03:32:54;;;;;;;;;;;;;;;15.98;100.00;101484.19;5246152;28;20714;-66
2021/07/11 03:35:32;;;;;;;46.33;34.53;;;;;;;15.77;100.00;101480.00;5243486;28;19928;-68
2021/07/11 03:38:05;;;;;;;44.75;37.28;;;;;;;15.75;100.00;101494.34;5245537;28;20017;-66
2021/07/11 03:40:42;;;;;;;41.97;35.25;;;;;;;15.75;100.00;101495.16;5248560;28;20041;-66
2021/07/11 03:43:16;;;;;;;48.53;38.22;;;;;;;15.82;100.00;101493.59;5244457;28;20242;-68
2021/07/11 03:45:50;;;;;;;52.85;39.80;;;;;;;15.79;100.00;101491.25;5243768;28;20806;-68
2021/07/11 03:48:30;;;;;;;51.72;39.97;;;;;;;15.84;100.00;101490.00;5243885;28;20020;-67
2021/07/11 03:51:04;;;;;;;51.13;41.95;;;;;;;15.84;100.00;101504.03;5245731;28;20048;-66
2021/07/11 03:53:37;;;;;;;52.17;42.10;;;;;;;15.87;100.00;101497.59;5242718;28;20381;-67
2021/07/11 03:56:10;;;;;;;51.65;42.13;;;;;;;15.92;100.00;101500.66;5245067;28;20021;-68
2021/07/11 03:58:42;;;;;;;55.15;43.88;;;;;;;15.91;100.00;101486.59;5245662;28;20026;-66
2021/07/11 04:01:16;;;;;;;60.75;44.92;;;;;;;15.96;100.00;101486.16;5238746;28;20029;-67
2021/07/11 04:03:48;;;;;;;57.50;44.20;;;;;;;15.97;100.00;101478.06;5243278;28;20040;-68
2021/07/11 04:06:22;;;;;;;64.63;47.25;;;;;;;16.00;100.00;101472.47;5242974;28;20021;-69
2021/07/11 04:08:59;;;;;;;58.30;45.03;;;;;;;16.01;100.00;101478.59;5239733;28;20067;-68
2021/07/11 04:11:35;;;;;;;59.30;45.20;;;;;;;16.07;100.00;101485.13;5243522;28;20044;-67
2021/07/11 04:14:06;;;;;;;59.42;44.72;;;;;;;16.07;100.00;101495.69;5242503;28;20044;-66
2021/07/11 04:16:38;;;;;;;64.50;47.90;;;;;;;16.12;100.00;101501.34;5244230;28;20677;-68
2021/07/11 04:19:10;;;;;;;63.35;46.53;;;;;;;16.03;100.00;101479.28;5240552;28;20057;-67
2021/07/11 04:21:42;;;;;;;61.67;47.17;;;;;;;16.18;100.00;101496.28;5245364;28;20025;-67
2021/07/11 04:24:14;;;;;;;65.05;47.55;;;;;;;16.17;100.00;101488.50;5244817;28;20025;-67
2021/07/11 04:26:47;;;;;;;62.85;48.08;;;;;;;16.17;100.00;101491.13;5240728;28;20375;-69
2021/07/11 04:29:18;;;;;;;65.30;47.90;;;;;;;16.21;100.00;101490.72;5246695;28;20029;-66
2021/07/11 04:31:50;;;;;;;62.58;47.13;;;;;;;16.18;100.00;101484.88;5245043;28;20025;-66
2021/07/11 04:34:27;;;;;;;66.88;48.45;;;;;;;16.25;100.00;101485.91;5260181;22;20036;-69
2021/07/11 04:37:01;;;;;;;72.95;49.83;;;;;;;16.25;100.00;101486.78;5216207;28;20048;-69
2021/07/11 04:39:33;;;;;;;73.28;50.25;;;;;;;16.23;100.00;101490.53;5221474;28;20037;-70
2021/07/11 04:42:05;;;;;;;70.93;48.97;;;;;;;16.24;100.00;101500.13;5224888;28;20034;-66
2021/07/11 04:44:36;;;;;;;66.03;48.30;;;;;;;16.29;100.00;101490.78;5218194;28;20076;-69
2021/07/11 04:47:07;;;;;;;69.38;48.58;;;;;;;16.38;100.00;101490.84;5222137;28;20040;-67
2021/07/11 04:49:40;;;;;;;64.18;47.90;;;;;;;16.35;100.00;101486.69;5222908;28;20112;-67
2021/07/11 04:52:11;;;;;;;69.43;49.35;;;;;;;16.36;100.00;101485.69;5223056;28;20538;-69
2021/07/11 04:54:42;;;;;;;71.85;49.88;;;;;;;16.38;100.00;101480.28;5220906;28;20125;-67
2021/07/11 04:57:14;;;;;;;67.32;48.40;;;;;;;16.42;100.00;101478.97;5222262;28;20020;-68
2021/07/11 04:59:45;;;;;;;74.60;50.45;;;;;;;16.44;100.00;101491.06;5224364;28;20030;-67
2021/07/11 05:02:16;;;;;;;77.00;54.58;;;;;;;16.46;100.00;101489.09;5221945;28;20443;-70
2021/07/11 05:04:48;;;;;;;73.32;48.97;;;;;;;16.47;100.00;101492.56;5225757;28;20046;-67
2021/07/11 05:07:19;;;;;;;76.85;52.40;;;;;;;16.49;100.00;101498.53;5223291;28;20021;-66
2021/07/11 05:09:50;;;;;;;76.78;53.55;;;;;;;16.42;100.00;101497.50;5226103;28;20056;-67
2021/07/11 05:12:21;;;;;;;77.47;53.00;;;;;;;16.48;100.00;101491.59;5221678;28;20040;-67
2021/07/11 05:14:53;;;;;;;77.75;51.38;;;;;;;16.51;100.00;101501.84;5238979;28;20279;-67
2021/07/11 05:17:24;;;;;;;75.07;52.33;;;;;;;16.56;100.00;101499.59;5223117;28;20358;-68
2021/07/11 05:19:55;;;;;;;83.93;54.10;;;;;;;16.62;100.00;101498.97;5222730;28;20299;-69
2021/07/11 05:22:27;;;;;;;76.97;52.20;;;;;;;16.62;100.00;101488.38;5224283;28;20045;-66
2021/07/11 05:24:58;;;;;;;78.60;52.40;;;;;;;16.64;100.00;101486.44;5224491;28;20024;-67
2021/07/11 05:27:29;;;;;;;79.50;52.58;;;;;;;16.67;100.00;101494.06;5223794;28;20454;-68
2021/07/11 05:30:01;;;;;;;83.95;54.25;;;;;;;16.69;100.00;101499.19;5221996;28;20021;-68
2021/07/11 05:32:33;;;;;;;82.57;55.05;;;;;;;16.72;100.00;101507.66;5222909;28;20144;-71
2021/07/11 05:35:05;;;;;;;78.47;51.70;;;;;;;16.80;100.00;101514.03;5221070;28;20057;-69
2021/07/11 05:37:36;;;;;;;79.60;53.63;;;;;;;16.81;100.00;101529.72;5220080;28;20405;-68
2021/07/11 05:40:08;;;;;;;88.30;55.90;;;;;;;16.86;100.00;101523.97;5216260;28;20040;-67
2021/07/11 05:42:39;;;;;;;78.43;52.28;;;;;;;16.89;100.00;101526.31;5220621;28;20029;-68
2021/07/11 05:45:13;;;;;;;85.85;55.70;;;;;;;16.87;100.00;101517.72;5221570;28;20021;-68
2021/07/11 05:47:44;;;;;;;75.95;51.80;;;;;;;16.83;100.00;101514.53;5219633;28;20659;-70
2021/07/11 05:50:16;;;;;;;80.38;52.35;;;;;;;16.91;100.00;101508.47;5222801;28;20104;-68
2021/07/11 05:52:47;;;;;;;76.43;52.63;;;;;;;16.86;100.00;101516.03;5223218;28;20026;-69
2021/07/11 05:55:18;;;;;;;79.72;53.92;;;;;;;16.92;100.00;101529.47;5221944;28;20095;-69
2021/07/11 05:57:50;;;;;;;77.45;52.78;;;;;;;16.95;100.00;101533.66;5223280;28;20029;-68
2021/07/11 06:00:21;;;;;;;78.60;54.45;;;;;;;16.97;100.00;101532.53;5223970;28;20128;-66
2021/07/11 06:02:52;;;;;;;83.03;56.40;;;;;;;16.94;100.00;101537.28;5220693;28;20029;-66
2021/07/11 06:05:24;;;;;;;76.53;53.28;;;;;;;16.91;100.00;101534.94;5221564;28;20025;-68
2021/07/11 06:07:55;;;;;;;85.18;53.72;;;;;;;16.98;100.00;101542.13;5222861;28;20029;-67
2021/07/11 06:10:26;;;;;;;76.63;53.95;;;;;;;17.05;100.00;101536.19;5218257;28;20026;-66
2021/07/11 06:12:57;;;;;;;83.00;52.67;;;;;;;17.00;100.00;101542.78;5213564;28;20100;-68
2021/07/11 06:15:29;;;;;;;77.63;53.05;;;;;;;16.98;100.00;101536.00;5210388;28;20596;-68
2021/07/11 06:18:00;;;;;;;74.95;50.38;;;;;;;16.97;100.00;101539.59;5208795;28;20037;-66
2021/07/11 06:20:34;;;;;;;75.05;51.28;;;;;;;16.99;100.00;101548.22;5214544;28;20116;-68
2021/07/11 06:23:06;;;;;;;68.97;49.20;;;;;;;16.93;100.00;101546.19;5220402;28;20540;-68
2021/07/11 06:25:37;;;;;;;74.63;50.70;;;;;;;16.95;100.00;101545.06;5216482;28;20034;-69
2021/07/11 06:28:08;;;;;;;72.88;50.10;;;;;;;16.92;100.00;101555.97;5222528;28;20233;-66
2021/07/11 06:30:40;;;;;;;70.32;49.47;;;;;;;16.89;100.00;101560.72;5219599;28;20084;-66
2021/07/11 06:33:11;;;;;;;64.53;46.93;;;;;;;16.87;100.00;101560.06;5218960;28;20034;-66
2021/07/11 06:35:42;;;;;;;67.22;46.33;;;;;;;16.88;100.00;101554.59;5219347;28;20390;-67
2021/07/11 06:38:13;;;;;;;68.47;47.30;;;;;;;16.85;100.00;101559.38;5219931;28;20375;-69
2021/07/11 06:40:45;;;;;;;70.78;47.35;;;;;;;16.86;100.00;101555.72;5221720;28;20487;-66
2021/07/11 06:43:16;;;;;;;72.70;47.97;;;;;;;16.83;100.00;101564.81;5223086;28;20560;-66
2021/07/11 06:45:47;;;;;;;67.43;46.17;;;;;;;16.87;100.00;101562.72;5220887;28;20117;-69
2021/07/11 06:48:19;;;;;;;68.72;47.97;;;;;;;16.91;100.00;101566.72;5222761;28;20497;-67
2021/07/11 06:50:50;;;;;;;66.13;45.43;;;;;;;17.01;100.00;101567.47;5224485;28;20034;-68
2021/07/11 06:53:21;;;;;;;68.55;45.05;;;;;;;17.02;100.00;101566.47;5221901;28;20029;-65
2021/07/11 06:55:53;;;;;;;68.30;46.95;;;;;;;16.97;100.00;101566.06;5223327;28;20373;-66
2021/07/11 06:58:24;;;;;;;59.33;43.70;;;;;;;16.97;100.00;101572.22;5225206;28;20029;-67
2021/07/11 07:00:55;;;;;;;60.53;43.17;;;;;;;16.98;100.00;101575.69;5222360;28;20109;-66
2021/07/11 07:03:27;;;;;;;51.63;38.13;;;;;;;16.96;100.00;101580.31;5222378;28;20032;-67
2021/07/11 07:05:58;;;;;;;40.13;32.30;;;;;;;16.98;100.00;101595.06;5225541;28;20039;-67
2021/07/11 07:08:29;;;;;;;34.38;28.75;;;;;;;17.00;100.00;101600.19;5223914;28;20497;-66
2021/07/11 07:11:01;;;;;;;32.83;27.23;;;;;;;16.99;100.00;101602.00;5219881;28;20478;-67
2021/07/11 07:13:32;;;;;;;29.77;24.83;;;;;;;17.01;100.00;101599.22;5222180;28;20152;-66
2021/07/11 07:16:04;;;;;;;27.85;24.75;;;;;;;17.01;100.00;101602.69;5223058;28;20046;-67
2021/07/11 07:18:35;;;;;;;27.08;23.25;;;;;;;17.08;100.00;101608.19;5225975;28;20029;-66
2021/07/11 07:21:06;;;;;;;26.08;23.23;;;;;;;17.12;100.00;101612.22;5220072;28;20030;-67
2021/07/11 07:23:38;;;;;;;23.85;21.38;;;;;;;17.05;100.00;101613.81;5224621;28;20028;-67
2021/07/11 07:26:09;;;;;;;22.70;20.30;;;;;;;17.07;100.00;101608.34;5224925;28;20096;-65
2021/07/11 07:28:41;;;;;;;23.05;20.27;;;;;;;17.18;100.00;101606.28;5223985;28;20692;-67
2021/07/11 07:31:12;;;;;;;21.38;18.80;;;;;;;17.34;100.00;101594.13;5223289;28;20152;-69
2021/07/11 07:33:43;;;;;;;21.33;19.20;;;;;;;17.38;100.00;101591.00;5222585;28;20021;-66
2021/07/11 07:36:14;;;;;;;21.33;19.13;;;;;;;17.55;100.00;101591.94;5224679;28;20073;-67
2021/07/11 07:38:46;;;;;;;19.77;17.50;;;;;;;17.64;100.00;101585.69;5225304;28;20025;-68
2021/07/11 07:41:17;;;;;;;19.00;17.02;;;;;;;17.77;100.00;101585.31;5224240;28;20021;-67
2021/07/11 07:43:48;;;;;;;17.63;15.50;;;;;;;17.87;100.00;101586.00;5222719;28;20044;-68
2021/07/11 07:46:20;;;;;;;18.07;15.90;;;;;;;17.94;100.00;101584.38;5220265;28;20040;-67
2021/07/11 07:48:51;;;;;;;17.53;15.67;;;;;;;18.11;100.00;101579.97;5222453;28;20038;-66
2021/07/11 07:51:22;;;;;;;16.77;15.00;;;;;;;18.17;100.00;101587.25;5220622;28;20025;-66
2021/07/11 07:53:54;;;;;;;14.73;13.32;;;;;;;18.19;100.00;101590.59;5222426;28;20116;-67
2021/07/11 07:56:25;;;;;;;16.58;13.68;;;;;;;18.43;100.00;101576.53;5217992;28;20030;-67
2021/07/11 07:58:56;;;;;;;16.00;14.30;;;;;;;18.47;100.00;101583.16;5224398;28;20541;-66
2021/07/11 08:01:28;;;;;;;13.63;12.23;;;;;;;18.51;100.00;101585.50;5223739;28;20467;-67
2021/07/11 08:03:59;;;;;;;14.97;12.23;;;;;;;18.65;100.00;101585.69;5222970;28;20026;-66
2021/07/11 08:06:31;;;;;;;14.17;12.50;;;;;;;18.69;99.65;101587.00;5222731;28;20116;-67
2021/07/11 08:09:04;;;;;;;12.50;10.95;;;;;;;18.78;98.56;101584.38;5223596;28;20065;-66
2021/07/11 08:11:35;;;;;;;11.83;10.63;;;;;;;18.89;98.04;101587.53;5214667;28;20036;-67
2021/07/11 08:14:06;;;;;;;13.00;10.97;;;;;;;19.07;99.48;101586.53;5236709;28;20025;-66
2021/07/11 08:16:37;;;;;;;10.13;8.83;;;;;;;19.21;95.62;101591.19;5224204;28;20324;-67
2021/07/11 08:19:09;;;;;;;9.80;7.17;;;;;;;19.17;93.61;101582.72;5224348;28;20539;-67
2021/07/11 08:21:41;;;;;;;8.13;7.33;;;;;;;19.34;91.48;101582.66;5224111;28;20029;-66
2021/07/11 08:24:12;;;;;;;9.10;7.33;;;;;;;19.37;91.21;101580.50;5215764;28;20041;-67
2021/07/11 08:26:43;;;;;;;10.77;6.93;;;;;;;19.47;91.18;101580.28;5222860;28;20040;-66
2021/07/11 08:29:15;;;;;;;8.20;7.40;;;;;;;19.54;92.74;101586.59;5225241;28;20033;-68
2021/07/11 08:31:46;;;;;;;8.10;7.00;;;;;;;19.66;91.90;101585.28;5220209;28;20037;-69
2021/07/11 08:34:18;;;;;;;10.33;8.13;;;;;;;19.75;88.83;101575.44;5221410;28;20497;-66
2021/07/11 08:36:52;;;;;;;8.97;7.50;;;;;;;19.74;86.98;101581.75;5224635;28;20025;-67
2021/07/11 08:39:23;;;;;;;7.20;6.43;;;;;;;19.74;86.87;101586.25;5220922;28;20032;-67
2021/07/11 08:41:57;;;;;;;7.90;7.10;;;;;;;19.99;86.58;101579.81;5222923;28;20048;-67
2021/07/11 08:44:28;;;;;;;8.18;7.38;;;;;;;20.18;89.99;101584.69;5216829;28;20025;-68
2021/07/11 08:46:59;;;;;;;7.33;6.33;;;;;;;20.21;83.84;101588.00;5222533;28;20048;-68
2021/07/11 08:49:30;;;;;;;7.43;6.73;;;;;;;20.28;83.84;101587.13;5222139;28;20453;-69
2021/07/11 08:52:04;;;;;;;6.30;5.63;;;;;;;20.54;85.95;101578.03;5220027;28;21152;-66
2021/07/11 08:54:37;;;;;;;6.05;5.45;;;;;;;20.51;82.06;101583.69;5222965;28;20401;-67
2021/07/11 08:57:11;;;;;;;;;;;;;;;20.81;83.87;101588.09;5225195;28;20029;-68
2021/07/11 08:59:43;;;;;;;6.65;5.97;;;;;;;20.65;82.19;101593.56;5222961;28;19971;-66
2021/07/11 09:02:14;;;;;;;7.77;6.30;;;;;;;20.76;81.80;101586.97;5227365;28;20113;-67
2021/07/11 09:04:46;;;;;;;6.83;6.00;;;;;;;20.91;83.66;101587.88;5221556;28;20024;-67
2021/07/11 09:07:22;;;;;;;6.50;5.57;;;;;;;21.05;80.77;101591.56;5223380;28;21150;-67
2021/07/11 09:09:56;;;;;;;7.47;5.88;;;;;;;21.05;79.65;101603.03;5219878;28;20446;-66
2021/07/11 09:12:27;;;;;;;6.20;4.70;;;;;;;21.17;77.09;101590.09;5221330;28;20391;-66
2021/07/11 09:14:59;;;;;;;5.63;4.87;;;;;;;21.39;78.81;101601.75;5223022;28;20036;-66
2021/07/11 09:17:34;;;;;;;6.85;5.20;;;;;;;21.41;76.12;101599.75;5223758;28;20029;-68
2021/07/11 09:20:06;;;;;;;6.63;5.47;;;;;;;21.41;75.43;101591.75;5221244;28;20142;-66
2021/07/11 09:22:38;;;;;;;5.63;5.03;;;;;;;21.70;77.03;101590.88;5224561;28;20030;-67
2021/07/11 09:25:12;;;;;;;7.27;5.73;;;;;;;21.65;75.78;101595.13;5225140;28;20026;-66
2021/07/11 09:27:43;;;;;;;7.03;6.10;;;;;;;21.68;75.83;101586.78;5222555;28;20030;-66
2021/07/11 09:30:17;;;;;;;6.10;5.50;;;;;;;21.79;76.04;101587.13;5221891;28;20022;-67
2021/07/11 09:32:53;;;;;;;7.65;6.85;;;;;;;21.92;73.67;101581.13;5222735;28;20417;-67
2021/07/11 09:35:26;;;;;;;7.95;6.20;;;;;;;21.84;72.94;101583.91;5219308;28;20053;-67
2021/07/11 09:38:00;;;;;;;6.82;6.13;;;;;;;21.93;73.99;101582.75;5222598;28;20034;-68
2021/07/11 09:40:32;;;;;;;6.13;5.32;;;;;;;22.15;75.43;101585.53;5221273;28;20533;-67
2021/07/11 09:43:04;;;;;;;8.50;5.90;;;;;;;22.36;74.97;101593.56;5222258;28;20040;-67
2021/07/11 09:45:35;;;;;;;6.70;6.10;;;;;;;22.64;74.18;101584.78;5221270;28;20037;-66
2021/07/11 09:48:08;;;;;;;8.47;5.97;;;;;;;22.35;71.55;101589.25;5222428;28;20030;-66
2021/07/11 09:50:40;;;;;;;7.57;6.13;;;;;;;22.33;74.32;101592.09;5217848;28;20028;-66
2021/07/11 09:53:13;;;;;;;6.00;5.40;;;;;;;22.63;72.66;101593.81;5221175;28;20589;-66
2021/07/11 09:55:44;;;;;;;7.82;6.00;;;;;;;22.69;73.30;101601.91;5218871;28;20434;-66
2021/07/11 09:58:15;;;;;;;7.10;6.40;;;;;;;22.90;72.01;101603.72;5220470;28;20029;-67
2021/07/11 10:00:47;;;;;;;7.17;6.47;;;;;;;22.99;73.55;101604.44;5220453;28;20438;-67
2021/07/11 10:03:18;;;;;;;6.77;5.80;;;;;;;23.43;71.70;101598.78;5221089;28;20025;-67
2021/07/11 10:05:50;;;;;;;7.50;5.87;;;;;;;23.47;69.73;101597.34;5220926;28;20038;-66
2021/07/11 10:08:21;;;;;;;7.90;6.93;;;;;;;23.39;65.54;101594.03;5222595;28;20493;-66
2021/07/11 10:10:53;;;;;;;7.20;5.97;;;;;;;23.47;69.60;101602.72;5224217;28;20198;-66
2021/07/11 10:13:24;;;;;;;7.63;6.83;;;;;;;23.27;68.58;101601.78;5219061;28;20032;-66
2021/07/11 10:15:55;;;;;;;10.17;7.60;;;;;;;23.44;71.12;101608.44;5220023;28;20510;-67
2021/07/11 10:18:29;;;;;;;6.47;5.87;;;;;;;23.69;69.17;101600.00;5222434;28;20051;-67
2021/07/11 10:21:01;;;;;;;6.93;6.22;;;;;;;23.75;68.14;101594.69;5220706;28;20399;-66
2021/07/11 10:23:36;;;;;;;6.60;5.88;;;;;;;24.12;66.61;101592.53;5221231;28;20033;-66
2021/07/11 10:26:12;;;;;;;7.60;6.90;;;;;;;23.96;67.64;101596.38;5220522;28;20030;-67
2021/07/11 10:28:46;;;;;;;7.20;6.50;;;;;;;23.70;65.99;101596.28;5218751;28;20115;-66
2021/07/11 10:31:23;;;;;;;6.78;6.10;;;;;;;23.38;66.39;101611.09;5220598;28;20121;-67
2021/07/11 10:33:56;;;;;;;6.35;5.78;;;;;;;23.34;65.11;101608.00;5217398;28;20776;-67
2021/07/11 10:36:33;;;;;;;5.70;5.18;;;;;;;23.43;69.15;101612.16;5219687;28;20791;-66
2021/07/11 10:39:08;;;;;;;5.47;4.93;;;;;;;23.46;69.29;101606.41;5218646;28;20038;-66
2021/07/11 10:41:50;;;;;;;5.60;4.72;;;;;;;23.90;67.47;101605.22;5218860;28;20025;-66
2021/07/11 10:44:24;;;;;;;6.10;5.43;;;;;;;23.48;67.43;101604.34;5217908;28;20505;-66
2021/07/11 10:46:58;;;;;;;6.72;5.95;;;;;;;23.77;67.08;101602.50;5217643;28;20030;-66
2021/07/11 10:49:30;;;;;;;6.30;5.70;;;;;;;24.17;68.31;101602.63;5222805;28;20178;-66
2021/07/11 10:52:09;;;;;;;7.32;6.60;;;;;;;24.36;67.76;101601.88;5222254;28;20029;-66
2021/07/11 10:54:55;;;;;;;7.13;6.43;;;;;;;24.45;66.79;101597.19;5221703;28;20394;-67
2021/07/11 10:57:37;;;;;;;7.43;6.15;;;;;;;24.37;64.59;101600.84;5221635;28;20072;-66
2021/07/11 11:00:16;;;;;;;5.78;5.00;;;;;;;24.60;64.10;101599.69;5223100;28;20037;-66
2021/07/11 11:02:51;;;;;;;5.53;4.88;;;;;;;24.60;64.51;101597.81;5220411;28;20026;-66
2021/07/11 11:05:24;;;;;;;5.88;5.20;;;;;;;24.73;63.78;101605.03;5234240;28;20060;-66
2021/07/11 11:08:09;;;;;;;5.13;4.63;;;;;;;24.78;62.57;101597.22;5218224;28;20041;-67
2021/07/11 11:10:42;;;;;;;6.30;5.70;;;;;;;24.71;62.49;101607.09;5222700;28;20017;-66
2021/07/11 11:13:25;;;;;;;5.18;4.68;;;;;;;24.85;60.61;101591.84;5223129;28;20072;-67
2021/07/11 11:16:02;;;;;;;5.07;3.97;;;;;;;24.98;60.50;101598.03;5219239;28;20470;-67
2021/07/11 11:18:33;;;;;;;4.47;3.42;;;;;;;25.11;61.79;101607.13;5220168;28;20033;-67
2021/07/11 11:21:19;;;;;;;3.43;3.13;;;;;;;25.44;60.53;101593.66;5218212;28;20029;-67
2021/07/11 11:23:55;;;;;;;3.42;3.10;;;;;;;25.35;58.51;101603.78;5219753;28;20034;-66
2021/07/11 11:26:28;;;;;;;4.53;3.42;;;;;;;24.91;59.27;101599.88;5221327;28;20383;-67
2021/07/11 11:29:01;;;;;;;3.58;3.28;;;;;;;24.69;60.84;101607.28;5223358;28;20030;-66
2021/07/11 11:31:34;;;;;;;5.60;3.38;;;;;;;24.40;60.11;101607.69;5223019;28;20032;-67
2021/07/11 11:34:08;;;;;;;4.80;4.30;;;;;;;24.24;60.05;101608.81;5225258;28;20542;-67